sensor_id;sensor_type;location;lat;lon;timestamp;P1;durP1;ratioP1;P2;durP2;ratioP2
21848;SDS011;11089;49.852;19.700;2023-04-03T00:00:33;7.45;;;4.90;;
21848;SDS011;11089;49.852;19.700;2023-04-03T00:03:34;7.13;;;4.20;;
21848;SDS011;11089;49.852;19.700;2023-04-03T00:06:35;7.20;;;4.85;;
21848;SDS011;11089;49.852;19.700;2023-04-03T00:09:36;8.05;;;4.88;;
21848;SDS011;11089;49.852;19.700;2023-04-03T00:12:37;6.28;;;4.30;;
21848;SDS011;11089;49.852;19.700;2023-04-03T00:15:38;5.28;;;4.15;;
21848;SDS011;11089;49.852;19.700;2023-04-03T00:18:39;8.30;;;4.40;;
21848;SDS011;11089;49.852;19.700;2023-04-03T00:21:41;5.97;;;3.95;;
21848;SDS011;11089;49.852;19.700;2023-04-03T00:24:41;9.38;;;4.68;;
21848;SDS011;11089;49.852;19.700;2023-04-03T00:27:42;6.45;;;4.45;;
21848;SDS011;11089;49.852;19.700;2023-04-03T00:30:43;4.60;;;3.97;;
21848;SDS011;11089;49.852;19.700;2023-04-03T00:33:45;5.97;;;3.80;;
21848;SDS011;11089;49.852;19.700;2023-04-03T00:36:46;6.18;;;4.15;;
21848;SDS011;11089;49.852;19.700;2023-04-03T00:39:46;7.15;;;4.57;;
21848;SDS011;11089;49.852;19.700;2023-04-03T00:42:48;6.25;;;4.60;;
21848;SDS011;11089;49.852;19.700;2023-04-03T00:45:53;7.32;;;4.22;;
21848;SDS011;11089;49.852;19.700;2023-04-03T00:48:57;5.72;;;4.07;;
21848;SDS011;11089;49.852;19.700;2023-04-03T00:51:58;6.50;;;4.20;;
21848;SDS011;11089;49.852;19.700;2023-04-03T00:55:02;4.97;;;3.85;;
21848;SDS011;11089;49.852;19.700;2023-04-03T00:58:06;6.45;;;4.72;;
21848;SDS011;11089;49.852;19.700;2023-04-03T01:01:08;7.13;;;4.45;;
21848;SDS011;11089;49.852;19.700;2023-04-03T01:07:40;7.93;;;4.30;;
21848;SDS011;11089;49.852;19.700;2023-04-03T01:10:41;7.10;;;4.70;;
21848;SDS011;11089;49.852;19.700;2023-04-03T01:13:43;7.32;;;5.00;;
21848;SDS011;11089;49.852;19.700;2023-04-03T01:16:51;6.95;;;4.47;;
21848;SDS011;11089;49.852;19.700;2023-04-03T01:20:02;7.70;;;4.80;;
21848;SDS011;11089;49.852;19.700;2023-04-03T01:23:20;6.32;;;4.60;;
21848;SDS011;11089;49.852;19.700;2023-04-03T01:26:33;6.85;;;4.45;;
21848;SDS011;11089;49.852;19.700;2023-04-03T01:29:36;7.00;;;4.45;;
21848;SDS011;11089;49.852;19.700;2023-04-03T01:32:37;8.10;;;4.28;;
21848;SDS011;11089;49.852;19.700;2023-04-03T01:35:38;5.15;;;3.92;;
21848;SDS011;11089;49.852;19.700;2023-04-03T01:38:39;5.10;;;3.85;;
21848;SDS011;11089;49.852;19.700;2023-04-03T01:41:40;5.00;;;3.90;;
21848;SDS011;11089;49.852;19.700;2023-04-03T01:44:41;4.07;;;3.22;;
21848;SDS011;11089;49.852;19.700;2023-04-03T01:47:42;5.45;;;3.30;;
21848;SDS011;11089;49.852;19.700;2023-04-03T01:50:43;5.22;;;3.25;;
21848;SDS011;11089;49.852;19.700;2023-04-03T01:53:44;4.22;;;2.75;;
21848;SDS011;11089;49.852;19.700;2023-04-03T01:56:45;3.97;;;2.80;;
21848;SDS011;11089;49.852;19.700;2023-04-03T01:59:46;3.65;;;2.75;;
21848;SDS011;11089;49.852;19.700;2023-04-03T02:02:46;3.85;;;2.58;;
21848;SDS011;11089;49.852;19.700;2023-04-03T02:05:47;4.35;;;3.05;;
21848;SDS011;11089;49.852;19.700;2023-04-03T02:08:49;3.08;;;2.45;;
21848;SDS011;11089;49.852;19.700;2023-04-03T02:11:50;4.63;;;3.13;;
21848;SDS011;11089;49.852;19.700;2023-04-03T02:14:51;4.22;;;2.90;;
21848;SDS011;11089;49.852;19.700;2023-04-03T02:17:52;4.25;;;3.28;;
21848;SDS011;11089;49.852;19.700;2023-04-03T02:20:53;4.03;;;3.17;;
21848;SDS011;11089;49.852;19.700;2023-04-03T02:23:54;4.43;;;3.42;;
21848;SDS011;11089;49.852;19.700;2023-04-03T02:26:55;4.32;;;3.22;;
21848;SDS011;11089;49.852;19.700;2023-04-03T02:29:56;4.88;;;3.25;;
21848;SDS011;11089;49.852;19.700;2023-04-03T02:32:56;5.43;;;3.55;;
21848;SDS011;11089;49.852;19.700;2023-04-03T02:35:57;4.15;;;3.70;;
21848;SDS011;11089;49.852;19.700;2023-04-03T02:38:58;5.85;;;4.05;;
21848;SDS011;11089;49.852;19.700;2023-04-03T02:41:59;5.78;;;3.97;;
21848;SDS011;11089;49.852;19.700;2023-04-03T02:45:00;5.85;;;3.95;;
21848;SDS011;11089;49.852;19.700;2023-04-03T02:48:01;6.53;;;4.10;;
21848;SDS011;11089;49.852;19.700;2023-04-03T02:51:02;5.72;;;4.25;;
21848;SDS011;11089;49.852;19.700;2023-04-03T02:54:03;5.40;;;3.75;;
21848;SDS011;11089;49.852;19.700;2023-04-03T02:57:04;6.45;;;5.25;;
21848;SDS011;11089;49.852;19.700;2023-04-03T03:00:08;8.50;;;5.22;;
21848;SDS011;11089;49.852;19.700;2023-04-03T03:03:10;7.60;;;5.18;;
21848;SDS011;11089;49.852;19.700;2023-04-03T03:06:12;7.03;;;4.95;;
21848;SDS011;11089;49.852;19.700;2023-04-03T03:09:15;7.43;;;5.28;;
21848;SDS011;11089;49.852;19.700;2023-04-03T03:12:16;8.13;;;5.00;;
21848;SDS011;11089;49.852;19.700;2023-04-03T03:15:21;7.50;;;5.10;;
21848;SDS011;11089;49.852;19.700;2023-04-03T03:18:22;9.20;;;6.22;;
21848;SDS011;11089;49.852;19.700;2023-04-03T03:21:23;6.70;;;4.53;;
21848;SDS011;11089;49.852;19.700;2023-04-03T03:24:24;5.75;;;4.18;;
21848;SDS011;11089;49.852;19.700;2023-04-03T03:27:25;5.85;;;4.00;;
21848;SDS011;11089;49.852;19.700;2023-04-03T03:30:26;5.05;;;4.00;;
21848;SDS011;11089;49.852;19.700;2023-04-03T03:33:27;6.10;;;3.80;;
21848;SDS011;11089;49.852;19.700;2023-04-03T03:36:28;4.93;;;3.70;;
21848;SDS011;11089;49.852;19.700;2023-04-03T03:39:29;5.13;;;3.72;;
21848;SDS011;11089;49.852;19.700;2023-04-03T03:42:30;5.28;;;3.92;;
21848;SDS011;11089;49.852;19.700;2023-04-03T03:45:31;5.35;;;3.97;;
21848;SDS011;11089;49.852;19.700;2023-04-03T03:48:32;6.63;;;3.72;;
21848;SDS011;11089;49.852;19.700;2023-04-03T03:51:33;5.57;;;3.78;;
21848;SDS011;11089;49.852;19.700;2023-04-03T03:54:34;4.25;;;3.50;;
21848;SDS011;11089;49.852;19.700;2023-04-03T03:57:35;4.13;;;3.10;;
21848;SDS011;11089;49.852;19.700;2023-04-03T04:00:36;4.93;;;3.50;;
21848;SDS011;11089;49.852;19.700;2023-04-03T04:03:37;5.30;;;3.33;;
21848;SDS011;11089;49.852;19.700;2023-04-03T04:06:38;4.60;;;3.40;;
21848;SDS011;11089;49.852;19.700;2023-04-03T04:09:39;5.75;;;3.70;;
21848;SDS011;11089;49.852;19.700;2023-04-03T04:12:40;5.13;;;4.20;;
21848;SDS011;11089;49.852;19.700;2023-04-03T04:15:41;5.82;;;4.18;;
21848;SDS011;11089;49.852;19.700;2023-04-03T04:18:42;7.28;;;4.20;;
21848;SDS011;11089;49.852;19.700;2023-04-03T04:21:43;5.72;;;4.32;;
21848;SDS011;11089;49.852;19.700;2023-04-03T04:24:44;5.82;;;4.28;;
21848;SDS011;11089;49.852;19.700;2023-04-03T04:27:45;12.13;;;6.38;;
21848;SDS011;11089;49.852;19.700;2023-04-03T04:30:46;11.50;;;6.05;;
21848;SDS011;11089;49.852;19.700;2023-04-03T04:33:47;9.95;;;5.45;;
21848;SDS011;11089;49.852;19.700;2023-04-03T04:36:48;9.13;;;5.28;;
21848;SDS011;11089;49.852;19.700;2023-04-03T04:39:49;7.10;;;4.75;;
21848;SDS011;11089;49.852;19.700;2023-04-03T04:42:51;7.75;;;4.35;;
21848;SDS011;11089;49.852;19.700;2023-04-03T04:49:07;8.40;;;3.90;;
21848;SDS011;11089;49.852;19.700;2023-04-03T04:52:08;5.53;;;3.80;;
21848;SDS011;11089;49.852;19.700;2023-04-03T04:55:09;5.70;;;3.47;;
21848;SDS011;11089;49.852;19.700;2023-04-03T04:58:10;7.43;;;3.30;;
21848;SDS011;11089;49.852;19.700;2023-04-03T05:01:11;4.57;;;3.10;;
21848;SDS011;11089;49.852;19.700;2023-04-03T05:04:12;6.45;;;3.90;;
21848;SDS011;11089;49.852;19.700;2023-04-03T05:07:13;3.65;;;2.80;;
21848;SDS011;11089;49.852;19.700;2023-04-03T05:10:14;4.72;;;2.90;;
21848;SDS011;11089;49.852;19.700;2023-04-03T05:13:15;5.00;;;3.22;;
21848;SDS011;11089;49.852;19.700;2023-04-03T05:16:16;5.35;;;3.25;;
21848;SDS011;11089;49.852;19.700;2023-04-03T05:19:18;5.30;;;3.28;;
21848;SDS011;11089;49.852;19.700;2023-04-03T05:22:19;4.85;;;3.50;;
21848;SDS011;11089;49.852;19.700;2023-04-03T05:25:21;5.32;;;3.50;;
21848;SDS011;11089;49.852;19.700;2023-04-03T05:28:22;6.60;;;3.90;;
21848;SDS011;11089;49.852;19.700;2023-04-03T05:31:23;5.88;;;3.90;;
21848;SDS011;11089;49.852;19.700;2023-04-03T05:34:24;6.10;;;3.50;;
21848;SDS011;11089;49.852;19.700;2023-04-03T05:37:25;7.85;;;3.47;;
21848;SDS011;11089;49.852;19.700;2023-04-03T05:40:26;6.07;;;3.85;;
21848;SDS011;11089;49.852;19.700;2023-04-03T05:43:26;5.78;;;3.97;;
21848;SDS011;11089;49.852;19.700;2023-04-03T05:46:27;7.38;;;4.60;;
21848;SDS011;11089;49.852;19.700;2023-04-03T05:49:28;7.22;;;4.90;;
21848;SDS011;11089;49.852;19.700;2023-04-03T05:52:30;7.70;;;4.90;;
21848;SDS011;11089;49.852;19.700;2023-04-03T05:55:35;10.20;;;5.57;;
21848;SDS011;11089;49.852;19.700;2023-04-03T05:58:36;9.88;;;6.55;;
21848;SDS011;11089;49.852;19.700;2023-04-03T06:01:37;10.55;;;6.70;;
21848;SDS011;11089;49.852;19.700;2023-04-03T06:04:37;12.10;;;7.18;;
21848;SDS011;11089;49.852;19.700;2023-04-03T06:07:39;13.93;;;7.60;;
21848;SDS011;11089;49.852;19.700;2023-04-03T06:10:39;12.13;;;7.40;;
21848;SDS011;11089;49.852;19.700;2023-04-03T06:13:40;10.40;;;6.18;;
21848;SDS011;11089;49.852;19.700;2023-04-03T06:16:41;9.75;;;6.20;;
21848;SDS011;11089;49.852;19.700;2023-04-03T06:19:44;8.65;;;5.65;;
21848;SDS011;11089;49.852;19.700;2023-04-03T06:22:45;9.15;;;5.60;;
21848;SDS011;11089;49.852;19.700;2023-04-03T06:25:46;8.40;;;5.82;;
21848;SDS011;11089;49.852;19.700;2023-04-03T06:28:47;9.20;;;5.68;;
21848;SDS011;11089;49.852;19.700;2023-04-03T06:31:50;12.55;;;7.10;;
21848;SDS011;11089;49.852;19.700;2023-04-03T06:34:52;9.35;;;5.95;;
21848;SDS011;11089;49.852;19.700;2023-04-03T06:37:53;8.35;;;5.30;;
21848;SDS011;11089;49.852;19.700;2023-04-03T06:40:54;6.97;;;4.82;;
21848;SDS011;11089;49.852;19.700;2023-04-03T06:43:56;7.88;;;4.68;;
21848;SDS011;11089;49.852;19.700;2023-04-03T06:46:58;7.03;;;4.90;;
21848;SDS011;11089;49.852;19.700;2023-04-03T06:49:59;9.10;;;5.00;;
21848;SDS011;11089;49.852;19.700;2023-04-03T06:53:00;8.43;;;4.70;;
21848;SDS011;11089;49.852;19.700;2023-04-03T06:56:01;8.65;;;4.85;;
21848;SDS011;11089;49.852;19.700;2023-04-03T06:59:02;8.85;;;4.53;;
21848;SDS011;11089;49.852;19.700;2023-04-03T07:02:03;9.93;;;4.93;;
21848;SDS011;11089;49.852;19.700;2023-04-03T07:05:04;7.80;;;4.72;;
21848;SDS011;11089;49.852;19.700;2023-04-03T07:08:06;6.90;;;4.05;;
21848;SDS011;11089;49.852;19.700;2023-04-03T07:11:07;6.07;;;4.32;;
21848;SDS011;11089;49.852;19.700;2023-04-03T07:14:08;8.13;;;4.68;;
21848;SDS011;11089;49.852;19.700;2023-04-03T07:17:09;7.97;;;4.47;;
21848;SDS011;11089;49.852;19.700;2023-04-03T07:20:10;7.65;;;4.78;;
21848;SDS011;11089;49.852;19.700;2023-04-03T07:23:11;13.45;;;5.53;;
21848;SDS011;11089;49.852;19.700;2023-04-03T07:26:12;7.95;;;5.20;;
21848;SDS011;11089;49.852;19.700;2023-04-03T07:29:13;5.68;;;3.78;;
21848;SDS011;11089;49.852;19.700;2023-04-03T07:32:15;5.38;;;2.85;;
21848;SDS011;11089;49.852;19.700;2023-04-03T07:35:16;7.53;;;2.88;;
21848;SDS011;11089;49.852;19.700;2023-04-03T07:38:17;5.60;;;2.72;;
21848;SDS011;11089;49.852;19.700;2023-04-03T07:41:19;5.30;;;2.53;;
21848;SDS011;11089;49.852;19.700;2023-04-03T07:44:22;5.88;;;2.40;;
21848;SDS011;11089;49.852;19.700;2023-04-03T07:47:23;6.00;;;2.42;;
21848;SDS011;11089;49.852;19.700;2023-04-03T07:50:24;4.60;;;2.20;;
21848;SDS011;11089;49.852;19.700;2023-04-03T07:53:26;4.28;;;1.80;;
21848;SDS011;11089;49.852;19.700;2023-04-03T07:56:27;5.43;;;2.15;;
21848;SDS011;11089;49.852;19.700;2023-04-03T07:59:28;6.13;;;2.35;;
21848;SDS011;11089;49.852;19.700;2023-04-03T08:02:29;6.68;;;3.45;;
21848;SDS011;11089;49.852;19.700;2023-04-03T08:05:34;10.48;;;4.10;;
21848;SDS011;11089;49.852;19.700;2023-04-03T08:08:44;80.85;;;15.20;;
21848;SDS011;11089;49.852;19.700;2023-04-03T08:11:45;30.80;;;7.65;;
21848;SDS011;11089;49.852;19.700;2023-04-03T08:14:46;12.70;;;3.45;;
21848;SDS011;11089;49.852;19.700;2023-04-03T08:17:47;5.32;;;2.58;;
21848;SDS011;11089;49.852;19.700;2023-04-03T08:20:48;3.60;;;2.13;;
21848;SDS011;11089;49.852;19.700;2023-04-03T08:23:49;6.50;;;2.40;;
21848;SDS011;11089;49.852;19.700;2023-04-03T08:26:51;6.93;;;2.40;;
21848;SDS011;11089;49.852;19.700;2023-04-03T08:29:52;5.47;;;2.47;;
21848;SDS011;11089;49.852;19.700;2023-04-03T08:32:53;7.57;;;3.30;;
21848;SDS011;11089;49.852;19.700;2023-04-03T08:35:54;7.43;;;3.35;;
21848;SDS011;11089;49.852;19.700;2023-04-03T08:38:55;7.68;;;3.00;;
21848;SDS011;11089;49.852;19.700;2023-04-03T08:41:57;8.60;;;3.65;;
21848;SDS011;11089;49.852;19.700;2023-04-03T08:51:21;5.18;;;2.50;;
21848;SDS011;11089;49.852;19.700;2023-04-03T08:54:27;4.68;;;2.60;;
21848;SDS011;11089;49.852;19.700;2023-04-03T08:57:44;3.55;;;2.28;;
21848;SDS011;11089;49.852;19.700;2023-04-03T09:00:49;4.50;;;2.22;;
21848;SDS011;11089;49.852;19.700;2023-04-03T09:03:53;3.47;;;1.85;;
21848;SDS011;11089;49.852;19.700;2023-04-03T09:06:56;4.25;;;2.03;;
21848;SDS011;11089;49.852;19.700;2023-04-03T09:10:02;2.83;;;1.83;;
21848;SDS011;11089;49.852;19.700;2023-04-03T09:13:08;3.08;;;1.63;;
21848;SDS011;11089;49.852;19.700;2023-04-03T09:16:20;3.83;;;1.95;;
21848;SDS011;11089;49.852;19.700;2023-04-03T09:19:38;5.97;;;1.95;;
21848;SDS011;11089;49.852;19.700;2023-04-03T09:22:51;4.43;;;2.40;;
21848;SDS011;11089;49.852;19.700;2023-04-03T09:26:05;4.05;;;2.20;;
21848;SDS011;11089;49.852;19.700;2023-04-03T09:29:14;4.78;;;3.47;;
21848;SDS011;11089;49.852;19.700;2023-04-03T09:32:31;4.10;;;2.42;;
21848;SDS011;11089;49.852;19.700;2023-04-03T09:35:35;4.07;;;2.38;;
21848;SDS011;11089;49.852;19.700;2023-04-03T09:38:37;3.45;;;1.80;;
21848;SDS011;11089;49.852;19.700;2023-04-03T09:41:38;3.60;;;2.20;;
21848;SDS011;11089;49.852;19.700;2023-04-03T09:44:39;5.93;;;2.55;;
21848;SDS011;11089;49.852;19.700;2023-04-03T09:47:40;2.92;;;1.92;;
21848;SDS011;11089;49.852;19.700;2023-04-03T09:53:55;5.35;;;2.67;;
21848;SDS011;11089;49.852;19.700;2023-04-03T09:56:57;4.57;;;2.50;;
21848;SDS011;11089;49.852;19.700;2023-04-03T10:00:06;5.10;;;3.15;;
21848;SDS011;11089;49.852;19.700;2023-04-03T10:03:27;5.15;;;2.50;;
21848;SDS011;11089;49.852;19.700;2023-04-03T10:06:56;4.32;;;2.17;;
21848;SDS011;11089;49.852;19.700;2023-04-03T10:09:57;6.60;;;2.67;;
21848;SDS011;11089;49.852;19.700;2023-04-03T10:13:06;4.57;;;2.35;;
21848;SDS011;11089;49.852;19.700;2023-04-03T10:16:14;4.63;;;2.53;;
21848;SDS011;11089;49.852;19.700;2023-04-03T10:32:44;4.22;;;2.50;;
21848;SDS011;11089;49.852;19.700;2023-04-03T10:39:23;4.53;;;2.75;;
21848;SDS011;11089;49.852;19.700;2023-04-03T10:46:02;5.38;;;3.05;;
21848;SDS011;11089;49.852;19.700;2023-04-03T10:49:13;4.00;;;2.40;;
21848;SDS011;11089;49.852;19.700;2023-04-03T10:55:46;4.53;;;2.75;;
21848;SDS011;11089;49.852;19.700;2023-04-03T10:58:55;6.75;;;3.42;;
21848;SDS011;11089;49.852;19.700;2023-04-03T11:02:11;5.43;;;3.05;;
21848;SDS011;11089;49.852;19.700;2023-04-03T11:05:30;6.22;;;3.13;;
21848;SDS011;11089;49.852;19.700;2023-04-03T11:15:24;5.95;;;3.40;;
21848;SDS011;11089;49.852;19.700;2023-04-03T11:18:33;4.53;;;3.30;;
21848;SDS011;11089;49.852;19.700;2023-04-03T11:21:52;4.30;;;2.80;;
21848;SDS011;11089;49.852;19.700;2023-04-03T11:28:13;4.72;;;3.13;;
21848;SDS011;11089;49.852;19.700;2023-04-03T11:37:47;4.75;;;3.00;;
21848;SDS011;11089;49.852;19.700;2023-04-03T11:40:51;10.45;;;4.10;;
21848;SDS011;11089;49.852;19.700;2023-04-03T11:44:00;5.30;;;2.95;;
21848;SDS011;11089;49.852;19.700;2023-04-03T11:47:04;5.35;;;2.80;;
21848;SDS011;11089;49.852;19.700;2023-04-03T11:50:08;8.02;;;2.95;;
21848;SDS011;11089;49.852;19.700;2023-04-03T11:53:35;4.63;;;3.05;;
21848;SDS011;11089;49.852;19.700;2023-04-03T11:56:40;5.70;;;3.25;;
21848;SDS011;11089;49.852;19.700;2023-04-03T11:59:41;5.53;;;3.15;;
21848;SDS011;11089;49.852;19.700;2023-04-03T12:02:42;6.43;;;3.38;;
21848;SDS011;11089;49.852;19.700;2023-04-03T12:05:44;6.15;;;3.40;;
21848;SDS011;11089;49.852;19.700;2023-04-03T12:08:49;5.72;;;3.58;;
21848;SDS011;11089;49.852;19.700;2023-04-03T12:11:53;7.07;;;4.10;;
21848;SDS011;11089;49.852;19.700;2023-04-03T12:14:55;7.18;;;3.22;;
21848;SDS011;11089;49.852;19.700;2023-04-03T12:18:43;6.55;;;3.10;;
21848;SDS011;11089;49.852;19.700;2023-04-03T12:25:00;5.70;;;3.22;;
21848;SDS011;11089;49.852;19.700;2023-04-03T12:28:35;8.32;;;3.05;;
21848;SDS011;11089;49.852;19.700;2023-04-03T12:31:42;4.55;;;3.17;;
21848;SDS011;11089;49.852;19.700;2023-04-03T12:41:50;5.65;;;3.40;;
21848;SDS011;11089;49.852;19.700;2023-04-03T12:45:19;6.85;;;3.45;;
21848;SDS011;11089;49.852;19.700;2023-04-03T12:48:22;5.63;;;3.67;;
21848;SDS011;11089;49.852;19.700;2023-04-03T12:54:38;9.15;;;4.57;;
21848;SDS011;11089;49.852;19.700;2023-04-03T12:57:40;8.70;;;3.60;;
21848;SDS011;11089;49.852;19.700;2023-04-03T13:00:41;7.03;;;3.45;;
21848;SDS011;11089;49.852;19.700;2023-04-03T13:03:43;7.28;;;3.45;;
21848;SDS011;11089;49.852;19.700;2023-04-03T13:06:47;9.10;;;3.30;;
21848;SDS011;11089;49.852;19.700;2023-04-03T13:09:55;6.22;;;3.28;;
21848;SDS011;11089;49.852;19.700;2023-04-03T13:13:07;4.43;;;2.92;;
21848;SDS011;11089;49.852;19.700;2023-04-03T13:16:10;5.65;;;3.08;;
21848;SDS011;11089;49.852;19.700;2023-04-03T13:19:17;10.27;;;3.38;;
21848;SDS011;11089;49.852;19.700;2023-04-03T13:25:43;5.18;;;3.00;;
21848;SDS011;11089;49.852;19.700;2023-04-03T13:28:45;5.53;;;2.30;;
21848;SDS011;11089;49.852;19.700;2023-04-03T13:31:47;3.58;;;2.13;;
21848;SDS011;11089;49.852;19.700;2023-04-03T13:34:54;6.30;;;2.30;;
21848;SDS011;11089;49.852;19.700;2023-04-03T13:37:57;4.88;;;2.42;;
21848;SDS011;11089;49.852;19.700;2023-04-03T13:41:02;5.57;;;2.20;;
21848;SDS011;11089;49.852;19.700;2023-04-03T13:47:23;7.15;;;2.33;;
21848;SDS011;11089;49.852;19.700;2023-04-03T13:50:25;7.57;;;2.25;;
21848;SDS011;11089;49.852;19.700;2023-04-03T13:53:29;5.70;;;2.65;;
21848;SDS011;11089;49.852;19.700;2023-04-03T13:56:35;8.23;;;4.20;;
21848;SDS011;11089;49.852;19.700;2023-04-03T13:59:38;3.35;;;2.60;;
21848;SDS011;11089;49.852;19.700;2023-04-03T14:02:39;4.07;;;2.10;;
21848;SDS011;11089;49.852;19.700;2023-04-03T14:05:40;8.40;;;2.95;;
21848;SDS011;11089;49.852;19.700;2023-04-03T14:08:42;5.50;;;3.08;;
21848;SDS011;11089;49.852;19.700;2023-04-03T14:11:44;3.60;;;2.25;;
21848;SDS011;11089;49.852;19.700;2023-04-03T14:14:47;5.90;;;2.42;;
21848;SDS011;11089;49.852;19.700;2023-04-03T14:17:48;3.58;;;2.10;;
21848;SDS011;11089;49.852;19.700;2023-04-03T14:20:51;4.60;;;2.10;;
21848;SDS011;11089;49.852;19.700;2023-04-03T14:23:52;5.93;;;2.20;;
21848;SDS011;11089;49.852;19.700;2023-04-03T14:26:53;4.00;;;2.58;;
21848;SDS011;11089;49.852;19.700;2023-04-03T14:29:57;5.88;;;2.30;;
21848;SDS011;11089;49.852;19.700;2023-04-03T14:32:59;4.03;;;2.47;;
21848;SDS011;11089;49.852;19.700;2023-04-03T14:36:01;3.72;;;2.08;;
21848;SDS011;11089;49.852;19.700;2023-04-03T14:39:16;4.93;;;2.97;;
21848;SDS011;11089;49.852;19.700;2023-04-03T14:42:26;4.90;;;2.42;;
21848;SDS011;11089;49.852;19.700;2023-04-03T14:45:28;5.50;;;2.50;;
21848;SDS011;11089;49.852;19.700;2023-04-03T14:48:30;8.30;;;2.47;;
21848;SDS011;11089;49.852;19.700;2023-04-03T14:51:31;5.60;;;2.40;;
21848;SDS011;11089;49.852;19.700;2023-04-03T14:54:32;4.72;;;2.72;;
21848;SDS011;11089;49.852;19.700;2023-04-03T14:57:33;3.53;;;2.10;;
21848;SDS011;11089;49.852;19.700;2023-04-03T15:00:35;5.57;;;2.72;;
21848;SDS011;11089;49.852;19.700;2023-04-03T15:03:35;6.45;;;3.00;;
21848;SDS011;11089;49.852;19.700;2023-04-03T15:06:36;6.15;;;3.42;;
21848;SDS011;11089;49.852;19.700;2023-04-03T15:09:37;9.10;;;3.08;;
21848;SDS011;11089;49.852;19.700;2023-04-03T15:12:38;4.95;;;2.70;;
21848;SDS011;11089;49.852;19.700;2023-04-03T15:15:39;7.50;;;3.42;;
21848;SDS011;11089;49.852;19.700;2023-04-03T15:18:41;6.88;;;2.80;;
21848;SDS011;11089;49.852;19.700;2023-04-03T15:21:42;4.32;;;2.40;;
21848;SDS011;11089;49.852;19.700;2023-04-03T15:24:43;6.97;;;2.75;;
21848;SDS011;11089;49.852;19.700;2023-04-03T15:27:45;4.53;;;2.67;;
21848;SDS011;11089;49.852;19.700;2023-04-03T15:30:46;6.03;;;2.60;;
21848;SDS011;11089;49.852;19.700;2023-04-03T15:33:46;8.35;;;3.53;;
21848;SDS011;11089;49.852;19.700;2023-04-03T15:36:47;7.78;;;4.03;;
21848;SDS011;11089;49.852;19.700;2023-04-03T15:39:49;6.35;;;2.80;;
21848;SDS011;11089;49.852;19.700;2023-04-03T15:42:50;4.07;;;2.30;;
21848;SDS011;11089;49.852;19.700;2023-04-03T15:45:52;4.95;;;2.67;;
21848;SDS011;11089;49.852;19.700;2023-04-03T15:48:56;5.75;;;2.78;;
21848;SDS011;11089;49.852;19.700;2023-04-03T15:51:57;4.30;;;2.40;;
21848;SDS011;11089;49.852;19.700;2023-04-03T15:54:58;6.53;;;2.67;;
21848;SDS011;11089;49.852;19.700;2023-04-03T15:57:59;5.82;;;2.42;;
21848;SDS011;11089;49.852;19.700;2023-04-03T16:01:01;5.10;;;2.60;;
21848;SDS011;11089;49.852;19.700;2023-04-03T16:04:02;3.63;;;2.28;;
21848;SDS011;11089;49.852;19.700;2023-04-03T16:07:04;3.60;;;2.45;;
21848;SDS011;11089;49.852;19.700;2023-04-03T16:10:06;5.10;;;2.50;;
21848;SDS011;11089;49.852;19.700;2023-04-03T16:13:09;5.72;;;3.00;;
21848;SDS011;11089;49.852;19.700;2023-04-03T16:16:10;3.90;;;2.50;;
21848;SDS011;11089;49.852;19.700;2023-04-03T16:19:10;5.90;;;3.30;;
21848;SDS011;11089;49.852;19.700;2023-04-03T16:22:12;7.45;;;3.20;;
21848;SDS011;11089;49.852;19.700;2023-04-03T16:25:13;5.70;;;3.20;;
21848;SDS011;11089;49.852;19.700;2023-04-03T16:28:14;5.90;;;3.22;;
21848;SDS011;11089;49.852;19.700;2023-04-03T16:31:15;5.65;;;3.33;;
21848;SDS011;11089;49.852;19.700;2023-04-03T16:34:16;5.40;;;3.20;;
21848;SDS011;11089;49.852;19.700;2023-04-03T16:37:17;7.32;;;3.17;;
21848;SDS011;11089;49.852;19.700;2023-04-03T16:40:18;6.32;;;2.95;;
21848;SDS011;11089;49.852;19.700;2023-04-03T16:43:19;6.65;;;3.10;;
21848;SDS011;11089;49.852;19.700;2023-04-03T16:46:20;6.50;;;3.00;;
21848;SDS011;11089;49.852;19.700;2023-04-03T16:49:21;7.57;;;3.30;;
21848;SDS011;11089;49.852;19.700;2023-04-03T16:52:22;9.13;;;3.60;;
21848;SDS011;11089;49.852;19.700;2023-04-03T16:55:23;6.22;;;2.95;;
21848;SDS011;11089;49.852;19.700;2023-04-03T16:58:24;5.78;;;3.10;;
21848;SDS011;11089;49.852;19.700;2023-04-03T17:01:26;5.70;;;2.88;;
21848;SDS011;11089;49.852;19.700;2023-04-03T17:04:26;11.02;;;4.10;;
21848;SDS011;11089;49.852;19.700;2023-04-03T17:07:27;6.57;;;2.95;;
21848;SDS011;11089;49.852;19.700;2023-04-03T17:10:28;8.18;;;3.20;;
21848;SDS011;11089;49.852;19.700;2023-04-03T17:13:30;6.90;;;3.22;;
21848;SDS011;11089;49.852;19.700;2023-04-03T17:16:32;7.43;;;3.33;;
21848;SDS011;11089;49.852;19.700;2023-04-03T17:19:35;5.28;;;2.97;;
21848;SDS011;11089;49.852;19.700;2023-04-03T17:22:37;7.15;;;3.22;;
21848;SDS011;11089;49.852;19.700;2023-04-03T17:25:38;6.68;;;3.42;;
21848;SDS011;11089;49.852;19.700;2023-04-03T17:28:40;6.75;;;3.45;;
21848;SDS011;11089;49.852;19.700;2023-04-03T17:31:41;6.72;;;3.65;;
21848;SDS011;11089;49.852;19.700;2023-04-03T17:34:42;5.68;;;3.28;;
21848;SDS011;11089;49.852;19.700;2023-04-03T17:37:43;9.02;;;3.60;;
21848;SDS011;11089;49.852;19.700;2023-04-03T17:40:44;6.95;;;3.40;;
21848;SDS011;11089;49.852;19.700;2023-04-03T17:43:45;8.88;;;4.43;;
21848;SDS011;11089;49.852;19.700;2023-04-03T17:46:46;10.93;;;4.55;;
21848;SDS011;11089;49.852;19.700;2023-04-03T17:49:47;8.68;;;3.80;;
21848;SDS011;11089;49.852;19.700;2023-04-03T17:52:48;9.18;;;3.85;;
21848;SDS011;11089;49.852;19.700;2023-04-03T17:55:48;10.02;;;3.97;;
21848;SDS011;11089;49.852;19.700;2023-04-03T17:58:50;8.90;;;4.40;;
21848;SDS011;11089;49.852;19.700;2023-04-03T18:01:51;6.97;;;4.43;;
21848;SDS011;11089;49.852;19.700;2023-04-03T18:04:52;6.93;;;3.97;;
21848;SDS011;11089;49.852;19.700;2023-04-03T18:07:53;8.93;;;4.40;;
21848;SDS011;11089;49.852;19.700;2023-04-03T18:10:55;7.30;;;4.00;;
21848;SDS011;11089;49.852;19.700;2023-04-03T18:13:57;11.18;;;4.40;;
21848;SDS011;11089;49.852;19.700;2023-04-03T18:17:02;9.82;;;4.40;;
21848;SDS011;11089;49.852;19.700;2023-04-03T18:20:03;7.32;;;3.67;;
21848;SDS011;11089;49.852;19.700;2023-04-03T18:23:05;9.57;;;4.95;;
21848;SDS011;11089;49.852;19.700;2023-04-03T18:26:06;8.27;;;4.32;;
21848;SDS011;11089;49.852;19.700;2023-04-03T18:29:09;8.35;;;3.72;;
21848;SDS011;11089;49.852;19.700;2023-04-03T18:32:12;10.30;;;4.72;;
21848;SDS011;11089;49.852;19.700;2023-04-03T18:35:15;9.95;;;4.15;;
21848;SDS011;11089;49.852;19.700;2023-04-03T18:38:16;11.30;;;4.72;;
21848;SDS011;11089;49.852;19.700;2023-04-03T18:41:18;9.63;;;4.43;;
21848;SDS011;11089;49.852;19.700;2023-04-03T18:44:22;12.25;;;5.38;;
21848;SDS011;11089;49.852;19.700;2023-04-03T18:47:26;11.10;;;4.53;;
21848;SDS011;11089;49.852;19.700;2023-04-03T18:50:28;11.25;;;4.90;;
21848;SDS011;11089;49.852;19.700;2023-04-03T18:53:29;13.38;;;5.00;;
21848;SDS011;11089;49.852;19.700;2023-04-03T18:56:30;9.73;;;4.57;;
21848;SDS011;11089;49.852;19.700;2023-04-03T18:59:31;10.73;;;4.18;;
21848;SDS011;11089;49.852;19.700;2023-04-03T19:02:32;11.80;;;4.82;;
21848;SDS011;11089;49.852;19.700;2023-04-03T19:05:33;13.40;;;4.88;;
21848;SDS011;11089;49.852;19.700;2023-04-03T19:08:34;12.32;;;5.15;;
21848;SDS011;11089;49.852;19.700;2023-04-03T19:11:35;10.55;;;4.63;;
21848;SDS011;11089;49.852;19.700;2023-04-03T19:14:36;8.30;;;4.80;;
21848;SDS011;11089;49.852;19.700;2023-04-03T19:17:37;11.65;;;5.30;;
21848;SDS011;11089;49.852;19.700;2023-04-03T19:20:38;13.95;;;6.38;;